GW0824 Weather Reports


Display with metric or nautical units.
time (UTC)temp
F
wind
direction
speed
MPH
gust
MPH
rain 1hr
in
rain 24hr
in
rain mn
in
humidity
%
barometer
mb
20221208230042 43 227 6.0 16.0 0.00 0.00 0.00 51 897.9
20221208224538 44 244 8.0 16.0 0.00 0.00 0.00 46 897.7
20221208223036 45 222 11.0 23.0 0.00 0.00 0.00 40 897.5
20221208221535 46 213 14.0 22.0 0.00 0.00 0.00 38 897.4
20221208220043 46 223 13.0 24.0 0.00 0.00 0.00 37 897.2
20221208214535 47 198 15.0 25.0 0.00 0.00 0.00 37 897.1
20221208213041 46 159 10.0 20.0 0.00 0.00 0.00 41 896.9
20221208211528 45 161 11.0 21.0 0.00 0.00 0.00 56 896.7
20221208210024 44 211 14.0 20.0 0.00 0.00 0.00 58 896.7
20221208204535 42 211 10.0 19.0 0.00 0.00 0.00 62 896.9
20221208203019 42 234 12.0 20.0 0.00 0.00 0.00 63 896.9
20221208201528 41 208 8.0 22.0 0.00 0.00 0.00 67 896.5
20221208200011 39 215 10.0 17.0 0.00 0.00 0.00 72 896.7
20221208194510 38 360 12.0 18.0 0.00 0.00 0.00 75 896.9
20221208193010 0 0.0 0.0 0.00 0.00 0.00 897.1
20221208191509 0 0.0 0.0 0.00 0.00 0.00 897.2
20221208190010 0 0.0 0.0 0.00 0.00 0.00 897.3
20221208184516 0 0.0 0.0 0.00 0.00 0.00 897.1
20221208183008 0 0.0 0.0 0.00 0.00 0.00 897.1
20221208181508 0 0.0 0.0 0.00 0.00 0.00 897.5
20221208180003 0 0.0 0.0 0.00 0.00 0.00 898.1
20221208174559 0 0.0 0.0 0.00 0.00 0.00 898.4
20221208173054 0 0.0 0.0 0.00 0.00 0.00 898.1
20221208171556 0 0.0 0.0 0.00 0.00 0.00 897.9
20221208170047 0 0.0 0.0 0.00 0.00 0.00 898.1
20221208164544 0 0.0 0.0 0.00 0.00 0.00 898.1
20221208163040 0 0.0 0.0 0.00 0.00 0.00 898.0
20221208161532 0 0.0 0.0 0.00 0.00 0.00 897.8
20221208160028 0 0.0 0.0 0.00 0.00 0.00 897.3
20221208154524 0 0.0 0.0 0.00 0.00 0.00 897.5
20221208153022 0 0.0 0.0 0.00 0.00 0.00 897.2
20221208151515 0 0.0 0.0 0.00 0.00 0.00 897.1
20221208150012 0 0.0 0.0 0.00 0.00 0.00 897.2
20221208144507 0 0.0 0.0 0.00 0.00 0.00 897.1
20221208143002 0 0.0 0.0 0.00 0.00 0.00 897.1
20221208141558 0 0.0 0.0 0.00 0.00 0.00 896.9
20221208140101 0 0.0 0.0 0.00 0.00 0.00 897.0
20221208134549 0 82 1.0 4.0 0.00 0.00 0.00 91 897.0
20221208133048 21 52 0.0 5.0 0.00 0.00 0.00 91 897.2
20221208131546 20 38 1.0 5.0 0.00 0.00 0.00 91 896.9
20221208130047 20 51 2.0 5.0 0.00 0.00 0.00 91 897.0
20221208124544 20 47 3.0 5.0 0.00 0.00 0.00 90 896.8
20221208123046 20 57 4.0 7.0 0.00 0.00 0.00 90 896.9
20221208121542 20 38 4.0 7.0 0.00 0.00 0.00 90 896.6
20221208120042 20 28 3.0 6.0 0.00 0.00 0.00 89 896.8
20221208114541 20 31 2.0 6.0 0.00 0.00 0.00 89 896.9
20221208113040 20 28 3.0 5.0 0.00 0.00 0.00 88 897.2
20221208111537 20 20 3.0 5.0 0.00 0.00 0.00 87 897.4
20221208110036 20 9 5.0 8.0 0.00 0.00 0.00 86 897.6
20221208104533 20 19 4.0 8.0 0.00 0.00 0.00 85 898.1
20221208103030 20 27 2.0 5.0 0.00 0.00 0.00 83 898.2
20221208101527 20 360 2.0 5.0 0.00 0.00 0.00 81 898.3
20221208100026 20 360 3.0 6.0 0.00 0.00 0.00 80 898.4
20221208094523 19 15 2.0 5.0 0.00 0.00 0.00 80 898.6
20221208093022 19 360 2.0 5.0 0.00 0.00 0.00 80 898.9
20221208091520 19 14 4.0 8.0 0.00 0.00 0.00 82 899.0
20221208090019 18 22 4.0 7.0 0.00 0.00 0.00 83 898.8
20221208084527 17 16 5.0 10.0 0.00 0.00 0.00 83 898.9
20221208083016 16 18 4.0 6.0 0.00 0.00 0.00 80 899.0
20221208081520 17 13 0.0 3.0 0.00 0.00 0.00 79 899.1
20221208080012 17 11 3.0 8.0 0.00 0.00 0.00 79 898.8
20221208074513 17 18 3.0 8.0 0.00 0.00 0.00 79 899.3
20221208073021 18 49 4.0 10.0 0.00 0.00 0.00 79 899.3
20221208071504 18 20 4.0 6.0 0.00 0.00 0.00 78 899.5
20221208070059 18 9 2.0 5.0 0.00 0.00 0.00 77 899.6
20221208064611 18 9 2.0 8.0 0.00 0.00 0.00 76 899.9
20221208063059 19 15 4.0 8.0 0.00 0.00 0.00 75 900.2
20221208061553 19 5 3.0 8.0 0.00 0.00 0.00 74 900.4
20221208060047 20 27 4.0 8.0 0.00 0.00 0.00 73 900.3
20221208054602 20 9 3.0 11.0 0.00 0.00 0.00 72 900.3
20221208053041 21 360 5.0 9.0 0.00 0.00 0.00 71 900.3
20221208051538 21 360 5.0 11.0 0.00 0.00 0.00 70 900.4
20221208050035 22 360 6.0 11.0 0.00 0.00 0.00 69 900.5
20221208044531 23 360 4.0 12.0 0.00 0.00 0.00 68 900.4
20221208043028 23 360 4.0 9.0 0.00 0.00 0.00 66 900.6
20221208041525 24 360 4.0 9.0 0.00 0.00 0.00 65 900.8
20221208040030 25 360 2.0 9.0 0.00 0.00 0.00 64 900.8
20221208034521 26 360 8.0 12.0 0.00 0.00 0.00 63 900.6
20221208033017 27 360 5.0 11.0 0.00 0.00 0.00 61 900.9
20221208031524 28 360 4.0 11.0 0.00 0.00 0.00 60 900.9
20221208030016 28 360 10.0 15.0 0.00 0.00 0.00 59 900.8
20221208024519 29 360 9.0 16.0 0.00 0.00 0.00 58 900.6
20221208023013 30 360 10.0 18.0 0.00 0.00 0.00 56 900.8
20221208021508 31 360 8.0 14.0 0.00 0.00 0.00 55 900.8
20221208020007 32 360 9.0 14.0 0.00 0.00 0.00 53 901.0
20221208014513 33 360 10.0 16.0 0.00 0.00 0.00 51 900.9
20221208013009 34 360 10.0 15.0 0.00 0.00 0.00 48 900.7
20221208011505 35 360 7.0 11.0 0.00 0.00 0.00 44 900.5
20221208010007 37 360 6.0 13.0 0.00 0.00 0.00 41 900.4
20221208004505 38 360 4.0 9.0 0.00 0.00 0.00 38 900.4
20221208003005 39 360 5.0 12.0 0.00 0.00 0.00 37 900.4
20221208001503 40 360 5.0 11.0 0.00 0.00 0.00 36 900.3
20221208000008 40 360 6.0 11.0 0.00 0.00 0.00 34 900.2
20221207234503 42 360 3.0 6.0 0.00 0.00 0.00 32 900.1
20221207233004 44 360 3.0 8.0 0.00 0.00 0.00 30 900.1
20221207231503 46 13 4.0 9.0 0.00 0.00 0.00 29 900.0